createdAt,value
2023-02-12T00:01:25.582Z,97081.20
2023-02-12T00:03:52.460Z,97076.20
2023-02-12T00:06:19.143Z,97068.60
2023-02-12T00:08:51.680Z,97073.00
2023-02-12T00:11:23.997Z,97073.00
2023-02-12T00:13:51.631Z,97080.60
2023-02-12T00:16:22.750Z,97075.00
2023-02-12T00:18:53.036Z,97070.40
2023-02-12T00:21:20.428Z,97064.00
2023-02-12T00:23:47.077Z,97064.40
2023-02-12T00:26:18.284Z,97064.60
2023-02-12T00:28:46.864Z,97063.80
2023-02-12T00:31:22.172Z,97068.60
2023-02-12T00:33:49.061Z,97067.40
2023-02-12T00:36:20.521Z,97068.00
2023-02-12T00:38:49.524Z,97061.00
2023-02-12T00:41:16.223Z,97064.40
2023-02-12T00:43:43.011Z,97062.80
2023-02-12T00:46:09.882Z,97066.80
2023-02-12T00:48:37.060Z,97064.40
2023-02-12T00:51:04.617Z,97059.40
2023-02-12T00:53:32.684Z,97062.00
2023-02-12T00:55:59.628Z,97061.60
2023-02-12T00:58:26.685Z,97068.20
2023-02-12T01:00:54.486Z,97075.20
2023-02-12T01:03:23.832Z,97077.40
2023-02-12T01:05:53.985Z,97081.80
2023-02-12T01:08:21.905Z,97078.20
2023-02-12T01:11:03.024Z,97073.40
2023-02-12T01:13:33.527Z,97068.40
2023-02-12T01:16:18.617Z,97070.20
2023-02-12T01:18:47.065Z,97067.40
2023-02-12T01:21:20.413Z,97062.20
2023-02-12T01:23:49.234Z,97062.20
2023-02-12T01:26:17.857Z,97052.80
2023-02-12T01:28:53.403Z,97055.00
2023-02-12T01:31:24.357Z,97063.40
2023-02-12T01:33:55.135Z,97073.80
2023-02-12T01:36:23.076Z,97074.40
2023-02-12T01:38:50.644Z,97079.40
2023-02-12T01:41:25.001Z,97078.20
2023-02-12T01:44:23.939Z,97083.40
2023-02-12T01:46:57.124Z,97075.80
2023-02-12T01:49:34.560Z,97079.80
2023-02-12T01:52:13.680Z,97077.80
2023-02-12T01:54:41.489Z,97079.60
2023-02-12T01:57:10.287Z,97077.40
2023-02-12T01:59:39.234Z,97077.20
2023-02-12T02:02:06.109Z,97072.40
2023-02-12T02:04:40.801Z,97071.20
2023-02-12T02:07:10.825Z,97074.60
2023-02-12T02:09:39.832Z,97070.00
2023-02-12T02:12:26.607Z,97073.00
2023-02-12T02:15:00.169Z,97069.80
2023-02-12T02:17:56.363Z,97069.60
2023-02-12T02:20:48.359Z,97065.20
2023-02-12T02:23:30.088Z,97062.40
2023-02-12T02:26:40.275Z,97062.80
2023-02-12T02:29:44.153Z,97060.80
2023-02-12T02:32:27.445Z,97065.40
2023-02-12T02:35:14.144Z,97063.80
2023-02-12T02:37:59.725Z,97062.00
2023-02-12T02:40:36.665Z,97054.40
2023-02-12T02:43:16.569Z,97050.00
2023-02-12T02:45:49.324Z,97042.20
2023-02-12T02:48:26.424Z,97052.20
2023-02-12T02:51:00.992Z,97046.80
2023-02-12T02:53:52.700Z,97046.40
2023-02-12T02:56:23.204Z,97045.80
2023-02-12T02:59:02.301Z,97041.20
2023-02-12T03:01:44.054Z,97041.80
2023-02-12T03:04:35.357Z,97034.00
2023-02-12T03:07:23.118Z,97040.60
2023-02-12T03:09:58.465Z,97045.20
2023-02-12T03:12:37.821Z,97049.20
2023-02-12T03:15:15.296Z,97051.40
2023-02-12T03:17:46.759Z,97054.20
2023-02-12T03:20:41.822Z,97058.20
2023-02-12T03:23:18.483Z,97059.00
2023-02-12T03:25:58.724Z,97062.80
2023-02-12T03:28:37.777Z,97065.80
2023-02-12T03:31:39.396Z,97069.80
2023-02-12T03:34:24.586Z,97067.20
2023-02-12T03:37:08.909Z,97070.80
2023-02-12T03:39:55.616Z,97068.40
2023-02-12T03:42:34.521Z,97073.20
2023-02-12T03:45:14.688Z,97070.80
2023-02-12T03:47:53.289Z,97067.40
2023-02-12T03:50:35.362Z,97069.60
2023-02-12T03:53:02.049Z,97068.80
2023-02-12T03:55:31.037Z,97066.80
2023-02-12T03:58:01.639Z,97069.20
2023-02-12T04:00:28.449Z,97065.80
2023-02-12T04:02:55.746Z,97069.20
2023-02-12T04:05:27.680Z,97073.00
2023-02-12T04:07:57.386Z,97075.00
2023-02-12T04:10:41.700Z,97081.20
2023-02-12T04:13:33.560Z,97085.40
2023-02-12T04:17:00.957Z,97089.00
2023-02-12T04:19:55.538Z,97093.00
2023-02-12T04:23:18.217Z,97092.80
2023-02-12T04:26:35.546Z,97093.40
2023-02-12T04:29:35.266Z,97096.80
2023-02-12T04:32:29.041Z,97094.20
2023-02-12T04:35:15.766Z,97099.20
2023-02-12T04:38:12.993Z,97100.80
2023-02-12T04:40:43.952Z,97103.00
2023-02-12T04:43:11.132Z,97102.40
2023-02-12T04:45:38.261Z,97105.40
2023-02-12T04:48:05.939Z,97108.80
2023-02-12T04:50:50.522Z,97114.80
2023-02-12T04:53:17.413Z,97113.80
2023-02-12T04:55:44.494Z,97112.20
2023-02-12T04:58:11.510Z,97104.80
2023-02-12T05:00:38.320Z,97112.60
2023-02-12T05:03:05.425Z,97115.40
2023-02-12T05:05:32.758Z,97111.80
2023-02-12T05:07:59.353Z,97111.60
2023-02-12T05:10:26.156Z,97109.80
2023-02-12T05:12:54.326Z,97112.20
2023-02-12T05:15:21.800Z,97111.80
2023-02-12T05:17:48.487Z,97118.20
2023-02-12T05:20:15.202Z,97118.00
2023-02-12T05:22:41.968Z,97119.40
2023-02-12T05:25:08.667Z,97125.20
2023-02-12T05:27:35.477Z,97124.00
2023-02-12T05:30:02.800Z,97125.60
2023-02-12T05:32:29.435Z,97127.80
2023-02-12T05:34:56.111Z,97134.20
2023-02-12T05:37:22.920Z,97133.60
2023-02-12T05:39:50.517Z,97130.00
2023-02-12T05:42:17.122Z,97134.80
2023-02-12T05:44:43.868Z,97133.40
2023-02-12T05:47:11.011Z,97134.00
2023-02-12T05:49:37.607Z,97135.40
2023-02-12T05:52:04.489Z,97137.40
2023-02-12T05:54:31.177Z,97138.60
2023-02-12T05:56:57.808Z,97137.20
2023-02-12T05:59:24.402Z,97131.00
2023-02-12T06:01:52.357Z,97136.60
2023-02-12T06:04:26.258Z,97139.00
2023-02-12T06:06:55.830Z,97140.20
2023-02-12T06:09:23.181Z,97140.80
2023-02-12T06:11:49.861Z,97143.20
2023-02-12T06:14:19.537Z,97142.20
2023-02-12T06:16:49.063Z,97149.00
2023-02-12T06:19:16.604Z,97147.40
2023-02-12T06:21:43.593Z,97146.60
2023-02-12T06:24:13.904Z,97153.40
2023-02-12T06:26:40.712Z,97153.80
2023-02-12T06:29:07.497Z,97157.60
2023-02-12T06:31:36.723Z,97158.00
2023-02-12T06:34:07.713Z,97163.60
2023-02-12T06:36:38.564Z,97163.20
2023-02-12T06:39:06.188Z,97164.60
2023-02-12T06:41:33.398Z,97170.60
2023-02-12T06:44:00.100Z,97172.40
2023-02-12T06:46:26.856Z,97175.80
2023-02-12T06:48:58.954Z,97177.60
2023-02-12T06:51:27.244Z,97178.80
2023-02-12T06:53:55.146Z,97176.20
2023-02-12T06:56:23.662Z,97180.40
2023-02-12T06:59:01.257Z,97179.40
2023-02-12T07:01:29.890Z,97175.40
2023-02-12T07:04:02.714Z,97176.40
2023-02-12T07:06:34.383Z,97176.00
2023-02-12T07:09:02.224Z,97176.20
2023-02-12T07:11:36.090Z,97179.20
2023-02-12T07:14:04.530Z,97176.40
2023-02-12T07:16:31.270Z,97178.00
2023-02-12T07:18:58.046Z,97179.40
2023-02-12T07:21:24.754Z,97180.40
2023-02-12T07:23:53.105Z,97178.20
2023-02-12T07:26:21.999Z,97174.20
2023-02-12T07:28:50.183Z,97176.00
2023-02-12T07:31:21.293Z,97174.80
2023-02-12T07:33:49.467Z,97174.00
2023-02-12T07:36:19.176Z,97168.60
2023-02-12T07:38:46.273Z,97168.80
2023-02-12T07:41:23.134Z,97164.20
2023-02-12T07:43:56.092Z,97161.60
2023-02-12T07:46:29.930Z,97163.20
2023-02-12T07:48:59.368Z,97160.40
2023-02-12T07:51:27.724Z,97159.60
2023-02-12T07:53:55.089Z,97155.00
2023-02-12T07:56:25.374Z,97156.20
2023-02-12T07:58:53.782Z,97156.20
2023-02-12T08:01:24.302Z,97154.80
2023-02-12T08:03:51.919Z,97159.00
2023-02-12T08:06:23.277Z,97163.60
2023-02-12T08:08:55.870Z,97168.00
2023-02-12T08:11:24.168Z,97159.40
2023-02-12T08:13:51.587Z,97158.80
2023-02-12T08:16:23.999Z,97159.00
2023-02-12T08:18:52.320Z,97160.20
2023-02-12T08:21:25.605Z,97158.20
2023-02-12T08:23:54.666Z,97155.40
2023-02-12T08:26:28.956Z,97158.00
2023-02-12T08:29:02.386Z,97158.00
2023-02-12T08:31:34.065Z,97155.60
2023-02-12T08:34:01.483Z,97158.80
2023-02-12T08:36:35.320Z,97157.60
2023-02-12T08:39:02.146Z,97153.40
2023-02-12T08:41:29.921Z,97147.60
2023-02-12T08:44:00.001Z,97147.20
2023-02-12T08:46:30.023Z,97150.40
2023-02-12T08:49:02.939Z,97147.40
2023-02-12T08:51:34.275Z,97146.20
2023-02-12T08:54:05.238Z,97149.00
2023-02-12T08:56:34.291Z,97146.40
2023-02-12T08:59:04.221Z,97144.00
2023-02-12T09:01:33.790Z,97139.80
2023-02-12T09:04:01.426Z,97146.40
2023-02-12T09:06:28.571Z,97145.20
2023-02-12T09:08:55.646Z,97139.80
2023-02-12T09:11:30.524Z,97141.60
2023-02-12T09:14:10.780Z,97146.80
2023-02-12T09:16:40.501Z,97147.20
2023-02-12T09:19:09.300Z,97148.20
2023-02-12T09:21:35.864Z,97149.00
2023-02-12T09:24:03.710Z,97149.60
2023-02-12T09:26:30.742Z,97157.00
2023-02-12T09:28:58.586Z,97158.20
2023-02-12T09:31:29.537Z,97157.60
2023-02-12T09:34:03.314Z,97161.40
2023-02-12T09:36:31.175Z,97160.80
2023-02-12T09:38:59.522Z,97164.40
2023-02-12T09:42:08.620Z,97157.60
2023-02-12T09:44:55.002Z,97155.80
2023-02-12T09:48:01.567Z,97153.20
2023-02-12T09:50:46.352Z,97155.60
2023-02-12T09:53:17.347Z,97153.40
2023-02-12T09:55:44.004Z,97154.00
2023-02-12T09:58:28.861Z,97151.20
2023-02-12T10:00:55.494Z,97152.60
2023-02-12T10:03:22.361Z,97152.80
2023-02-12T10:05:52.256Z,97156.80
2023-02-12T10:08:37.478Z,97156.60
2023-02-12T10:11:28.388Z,97155.80
2023-02-12T10:14:11.771Z,97159.40
2023-02-12T10:17:06.964Z,97154.80
2023-02-12T10:20:19.818Z,97159.20
2023-02-12T10:23:31.946Z,97152.80
2023-02-12T10:26:04.200Z,97153.60
2023-02-12T10:28:49.840Z,97155.20
2023-02-12T10:31:41.848Z,97152.60
2023-02-12T10:34:34.710Z,97157.20
2023-02-12T10:37:14.537Z,97152.40
2023-02-12T10:39:51.339Z,97153.60
2023-02-12T10:42:43.914Z,97152.40
2023-02-12T10:45:20.718Z,97142.20
2023-02-12T10:47:53.573Z,97139.00
2023-02-12T10:50:33.766Z,97131.60
2023-02-12T10:53:03.624Z,97126.80
2023-02-12T10:55:33.289Z,97127.00
2023-02-12T10:58:03.283Z,97128.60
2023-02-12T11:00:38.104Z,97128.80
2023-02-12T11:03:13.819Z,97127.40
2023-02-12T11:05:43.613Z,97126.00
2023-02-12T11:08:34.778Z,97132.80
2023-02-12T11:11:02.477Z,97133.40
2023-02-12T11:13:30.231Z,97126.40
2023-02-12T11:15:56.825Z,97128.00
2023-02-12T11:18:27.520Z,97127.40
2023-02-12T11:21:02.397Z,97125.00
2023-02-12T11:23:37.856Z,97128.80
2023-02-12T11:26:19.686Z,97132.40
2023-02-12T11:29:04.279Z,97132.40
2023-02-12T11:31:35.465Z,97128.60
2023-02-12T11:34:20.257Z,97129.00
2023-02-12T11:36:50.808Z,97127.60
2023-02-12T11:39:34.118Z,97128.60
2023-02-12T11:42:05.786Z,97131.00
2023-02-12T11:44:37.987Z,97125.60
2023-02-12T11:47:12.099Z,97123.80
2023-02-12T11:49:49.146Z,97119.40
2023-02-12T11:52:27.494Z,97119.20
2023-02-12T11:55:02.831Z,97121.20
2023-02-12T11:58:04.964Z,97118.60
2023-02-12T12:00:49.890Z,97119.80
2023-02-12T12:03:44.032Z,97116.20
2023-02-12T12:06:19.779Z,97108.20
2023-02-12T12:09:16.107Z,97105.80
2023-02-12T12:12:19.822Z,97110.40
2023-02-12T12:15:11.692Z,97104.60
2023-02-12T12:18:08.324Z,97102.60
2023-02-12T12:20:49.149Z,97101.40
2023-02-12T12:23:19.382Z,97098.60
2023-02-12T12:25:54.873Z,97097.40
2023-02-12T12:28:44.830Z,97092.80
2023-02-12T12:31:31.347Z,97093.60
2023-02-12T12:34:22.794Z,97090.00
2023-02-12T12:37:26.436Z,97089.80
2023-02-12T12:40:33.768Z,97088.80
2023-02-12T12:43:44.093Z,97084.40
2023-02-12T12:46:41.441Z,97082.60
2023-02-12T12:49:33.755Z,97079.80
2023-02-12T12:52:37.508Z,97076.20
2023-02-12T12:55:52.867Z,97081.20
2023-02-12T12:58:41.540Z,97082.20
2023-02-12T13:01:55.920Z,97080.80
2023-02-12T13:04:46.868Z,97076.20
2023-02-12T13:07:45.000Z,97070.40
2023-02-12T13:10:45.708Z,97074.20
2023-02-12T13:13:26.630Z,97064.20
2023-02-12T13:15:56.453Z,97063.80
2023-02-12T13:18:49.978Z,97066.00
2023-02-12T13:21:35.266Z,97064.80
2023-02-12T13:24:40.155Z,97070.40
2023-02-12T13:27:16.070Z,97066.40
2023-02-12T13:29:55.078Z,97061.60
2023-02-12T13:32:30.686Z,97067.00
2023-02-12T13:34:59.384Z,97070.80
2023-02-12T13:37:40.307Z,97071.00
2023-02-12T13:40:18.419Z,97067.20
2023-02-12T13:42:56.549Z,97066.40
2023-02-12T13:45:59.548Z,97065.60
2023-02-12T13:48:54.338Z,97060.80
2023-02-12T13:51:57.232Z,97064.60
2023-02-12T13:54:54.276Z,97062.00
2023-02-12T13:57:21.842Z,97054.80
2023-02-12T13:59:59.437Z,97059.80
2023-02-12T14:02:42.748Z,97056.00
2023-02-12T14:05:27.870Z,97066.80
2023-02-12T14:08:05.698Z,97065.60
2023-02-12T14:10:38.366Z,97060.20
2023-02-12T14:13:17.512Z,97064.60
2023-02-12T14:15:55.381Z,97066.00
2023-02-12T14:18:39.084Z,97062.40
2023-02-12T14:21:11.754Z,97058.20
2023-02-12T14:23:42.251Z,97065.60
2023-02-12T14:26:23.186Z,97067.40
2023-02-12T14:29:06.954Z,97061.40
2023-02-12T14:31:37.173Z,97058.60
2023-02-12T14:34:07.512Z,97057.60
2023-02-12T14:36:38.900Z,97061.20
2023-02-12T14:39:29.716Z,97057.60
2023-02-12T14:42:16.304Z,97056.60
2023-02-12T14:44:59.734Z,97058.60
2023-02-12T14:47:29.286Z,97056.80
2023-02-12T14:50:02.140Z,97057.80
2023-02-12T14:52:38.853Z,97060.00
2023-02-12T14:55:20.459Z,97065.60
2023-02-12T14:57:48.751Z,97062.00
2023-02-12T15:00:18.620Z,97065.20
2023-02-12T15:02:53.325Z,97066.00
2023-02-12T15:05:32.636Z,97068.20
2023-02-12T15:08:12.939Z,97070.20
2023-02-12T15:11:33.555Z,97064.20
2023-02-12T15:14:12.993Z,97058.20
2023-02-12T15:16:54.783Z,97057.20
2023-02-12T15:20:07.001Z,97053.40
2023-02-12T15:22:40.144Z,97051.60
2023-02-12T15:25:35.771Z,97049.40
2023-02-12T15:28:33.356Z,97047.60
2023-02-12T15:31:02.784Z,97055.20
2023-02-12T15:33:36.243Z,97049.60
2023-02-12T15:36:05.014Z,97046.60
2023-02-12T15:38:41.576Z,97052.80
2023-02-12T15:41:22.966Z,97053.20
2023-02-12T15:43:49.704Z,97048.80
2023-02-12T15:46:18.264Z,97051.40
2023-02-12T15:48:45.624Z,97046.80
2023-02-12T15:51:44.657Z,97047.00
2023-02-12T15:54:18.150Z,97048.00
2023-02-12T15:56:45.079Z,97047.60
2023-02-12T15:59:29.256Z,97043.20
2023-02-12T16:02:03.642Z,97045.00
2023-02-12T16:04:41.958Z,97045.40
2023-02-12T16:07:11.173Z,97047.80
2023-02-12T16:09:38.638Z,97053.00
2023-02-12T16:12:13.671Z,97054.20
2023-02-12T16:14:49.289Z,97054.60
2023-02-12T16:17:34.142Z,97048.40
2023-02-12T16:20:15.508Z,97043.80
2023-02-12T16:22:44.882Z,97043.20
2023-02-12T16:25:33.636Z,97046.40
2023-02-12T16:28:04.308Z,97048.60
2023-02-12T16:30:34.837Z,97051.20
2023-02-12T16:33:02.736Z,97053.20
2023-02-12T16:35:35.559Z,97060.20
2023-02-12T16:38:30.910Z,97059.20
2023-02-12T16:41:31.941Z,97059.80
2023-02-12T16:44:01.325Z,97063.20
2023-02-12T16:46:32.160Z,97067.80
2023-02-12T16:49:01.601Z,97072.20
2023-02-12T16:51:32.207Z,97070.40
2023-02-12T16:54:01.986Z,97070.60
2023-02-12T16:56:34.376Z,97072.00
2023-02-12T16:59:02.066Z,97074.60
2023-02-12T17:01:34.826Z,97072.00
2023-02-12T17:04:09.266Z,97071.80
2023-02-12T17:06:35.960Z,97065.00
2023-02-12T17:09:02.612Z,97077.60
2023-02-12T17:11:29.852Z,97076.40
2023-02-12T17:13:57.187Z,97073.80
2023-02-12T17:16:32.241Z,97073.40
2023-02-12T17:19:00.537Z,97074.00
2023-02-12T17:21:43.460Z,97079.00
2023-02-12T17:24:24.597Z,97077.80
2023-02-12T17:26:52.929Z,97081.80
2023-02-12T17:29:22.586Z,97080.60
2023-02-12T17:31:49.824Z,97082.20
2023-02-12T17:34:16.941Z,97080.40
2023-02-12T17:36:43.600Z,97074.40
2023-02-12T17:39:13.531Z,97071.40
2023-02-12T17:41:40.889Z,97077.40
2023-02-12T17:44:08.421Z,97075.80
2023-02-12T17:46:35.199Z,97074.20
2023-02-12T17:49:02.515Z,97078.20
2023-02-12T17:51:29.174Z,97080.60
2023-02-12T17:53:55.857Z,97081.80
2023-02-12T17:56:25.719Z,97081.60
2023-02-12T17:58:53.261Z,97081.00
2023-02-12T18:01:22.779Z,97084.40
2023-02-12T18:03:52.303Z,97086.00
2023-02-12T18:06:26.117Z,97090.40
2023-02-12T18:08:53.837Z,97091.20
2023-02-12T18:11:20.884Z,97090.20
2023-02-12T18:13:47.768Z,97088.00
2023-02-12T18:16:15.059Z,97096.40
2023-02-12T18:18:41.817Z,97093.40
2023-02-12T18:21:11.928Z,97093.40
2023-02-12T18:23:38.733Z,97094.40
2023-02-12T18:26:08.471Z,97093.20
2023-02-12T18:28:35.498Z,97092.20
2023-02-12T18:31:03.013Z,97089.20
2023-02-12T18:33:29.722Z,97083.20
2023-02-12T18:36:05.143Z,97082.60
2023-02-12T18:38:32.027Z,97083.40
2023-02-12T18:41:00.427Z,97078.40
2023-02-12T18:43:28.219Z,97082.80
2023-02-12T18:45:55.312Z,97081.60
2023-02-12T18:48:22.219Z,97082.00
2023-02-12T18:50:51.767Z,97080.20
2023-02-12T18:53:19.268Z,97084.00
2023-02-12T18:55:46.666Z,97081.80
2023-02-12T18:58:13.240Z,97081.80
2023-02-12T19:00:40.093Z,97083.00
2023-02-12T19:03:06.714Z,97080.80
2023-02-12T19:05:33.316Z,97086.40
2023-02-12T19:08:00.095Z,97077.80
2023-02-12T19:10:26.709Z,97077.80
2023-02-12T19:12:53.333Z,97083.20
2023-02-12T19:15:19.875Z,97079.20
2023-02-12T19:17:46.397Z,97074.80
2023-02-12T19:20:15.758Z,97072.20
2023-02-12T19:22:43.143Z,97068.80
2023-02-12T19:25:10.277Z,97072.00
2023-02-12T19:27:36.903Z,97078.20
2023-02-12T19:30:05.249Z,97079.60
2023-02-12T19:32:32.078Z,97079.00
2023-02-12T19:34:58.649Z,97076.80
2023-02-12T19:37:25.441Z,97083.20
2023-02-12T19:39:52.086Z,97085.40
2023-02-12T19:42:18.746Z,97081.20
2023-02-12T19:44:46.723Z,97075.80
2023-02-12T19:47:13.564Z,97078.80
2023-02-12T19:49:41.358Z,97077.20
2023-02-12T19:52:09.182Z,97076.00
2023-02-12T19:54:36.289Z,97078.00
2023-02-12T19:57:08.552Z,97081.00
2023-02-12T19:59:36.241Z,97077.40
2023-02-12T20:02:03.521Z,97073.40
2023-02-12T20:04:31.002Z,97072.60
2023-02-12T20:06:58.010Z,97075.80
2023-02-12T20:09:25.464Z,97074.40
2023-02-12T20:11:53.540Z,97072.40
2023-02-12T20:14:22.983Z,97072.80
2023-02-12T20:16:51.381Z,97074.00
2023-02-12T20:19:27.534Z,97073.20
2023-02-12T20:21:56.112Z,97073.60
2023-02-12T20:24:25.421Z,97075.40
2023-02-12T20:26:53.709Z,97075.80
2023-02-12T20:29:20.577Z,97076.60
2023-02-12T20:31:47.866Z,97076.40
2023-02-12T20:34:18.400Z,97075.20
2023-02-12T20:36:46.873Z,97074.20
2023-02-12T20:39:17.531Z,97075.00
2023-02-12T20:41:44.364Z,97085.20
2023-02-12T20:44:16.035Z,97084.40
2023-02-12T20:46:47.972Z,97085.60
2023-02-12T20:49:18.235Z,97083.40
2023-02-12T20:51:48.837Z,97081.80
2023-02-12T20:54:15.565Z,97079.20
2023-02-12T20:56:42.168Z,97084.40
2023-02-12T20:59:08.778Z,97082.20
2023-02-12T21:01:39.040Z,97088.00
2023-02-12T21:04:09.730Z,97088.00
2023-02-12T21:06:36.680Z,97093.60
2023-02-12T21:09:03.471Z,97091.00
2023-02-12T21:11:30.620Z,97092.00
2023-02-12T21:14:18.444Z,97093.20
2023-02-12T21:16:46.076Z,97095.80
2023-02-12T21:19:16.312Z,97097.80
2023-02-12T21:21:45.212Z,97094.80
2023-02-12T21:24:21.485Z,97091.20
2023-02-12T21:26:49.662Z,97088.40
2023-02-12T21:29:16.411Z,97088.00
2023-02-12T21:31:47.816Z,97092.00
2023-02-12T21:34:18.300Z,97092.20
2023-02-12T21:36:46.549Z,97094.60
2023-02-12T21:39:27.028Z,97100.20
2023-02-12T21:42:03.259Z,97100.00
2023-02-12T21:44:32.205Z,97105.40
2023-02-12T21:46:59.019Z,97106.80
2023-02-12T21:49:27.761Z,97101.40
2023-02-12T21:52:04.629Z,97104.20
2023-02-12T21:54:31.615Z,97105.00
2023-02-12T21:56:59.601Z,97104.60
2023-02-12T21:59:30.681Z,97103.80
2023-02-12T22:01:59.315Z,97105.20
2023-02-12T22:04:26.863Z,97107.00
2023-02-12T22:06:54.104Z,97110.20
2023-02-12T22:09:23.122Z,97110.40
2023-02-12T22:11:52.589Z,97104.40
2023-02-12T22:14:21.695Z,97103.40
2023-02-12T22:16:50.285Z,97101.20
2023-02-12T22:19:17.141Z,97111.60
2023-02-12T22:21:44.466Z,97106.20
2023-02-12T22:24:15.992Z,97108.60
2023-02-12T22:26:43.539Z,97110.60
2023-02-12T22:29:13.209Z,97118.60
2023-02-12T22:31:42.915Z,97112.00
2023-02-12T22:34:18.815Z,97118.80
2023-02-12T22:36:46.944Z,97119.00
2023-02-12T22:39:14.838Z,97119.60
2023-02-12T22:41:42.453Z,97118.60
2023-02-12T22:44:11.937Z,97114.60
2023-02-12T22:46:38.710Z,97118.60
2023-02-12T22:49:05.474Z,97121.40
2023-02-12T22:51:33.026Z,97118.60
2023-02-12T22:54:00.549Z,97120.40
2023-02-12T22:56:27.705Z,97124.20
2023-02-12T22:58:58.377Z,97126.00
2023-02-12T23:01:26.431Z,97118.60
2023-02-12T23:03:53.437Z,97114.80
2023-02-12T23:06:25.605Z,97119.80
2023-02-12T23:09:00.171Z,97117.60
2023-02-12T23:11:29.858Z,97109.20
2023-02-12T23:13:58.516Z,97110.20
2023-02-12T23:16:25.609Z,97112.20
2023-02-12T23:19:00.576Z,97104.60
2023-02-12T23:21:29.377Z,97113.00
2023-02-12T23:23:56.963Z,97114.40
2023-02-12T23:26:23.646Z,97115.80
2023-02-12T23:28:50.566Z,97111.40
2023-02-12T23:31:17.326Z,97107.80
2023-02-12T23:33:44.195Z,97105.00
2023-02-12T23:36:10.827Z,97105.60
2023-02-12T23:38:37.599Z,97105.00
2023-02-12T23:41:04.449Z,97104.00
2023-02-12T23:43:32.750Z,97100.00
2023-02-12T23:46:00.253Z,97104.00
2023-02-12T23:48:27.158Z,97096.40
2023-02-12T23:50:53.778Z,97094.40
2023-02-12T23:53:20.429Z,97096.80
2023-02-12T23:55:51.209Z,97095.00
2023-02-12T23:58:18.016Z,97093.20
